Time;durP1;ratioP1;P1;durP2;ratioP2;P2;SDS_P1;SDS_P2;PMS_P1;PMS_P2;Temp;Humidity;BMP_temperature;BMP_pressure;BME280_temperature;BME280_humidity;BME280_pressure;Samples;Min_cycle;Max_cycle;Signal;HPM_P1;HPM_P2
2022/08/31 00:05:18;;;;;;;2.38;2.05;;;21.10;57.40;;;;;;5075803;28;20041;-72
2022/08/31 00:07:44;;;;;;;4.43;1.92;;;21.10;56.60;;;;;;5075646;28;20065;-72
2022/08/31 00:10:17;;;;;;;4.63;2.13;;;21.10;56.60;;;;;;5075642;28;20029;-72
2022/08/31 00:12:47;;;;;;;6.18;2.10;;;21.00;56.70;;;;;;5075766;28;20020;-72
2022/08/31 00:15:16;;;;;;;2.50;1.90;;;21.00;56.80;;;;;;5075671;28;20388;-73
2022/08/31 00:18:00;;;;;;;3.22;2.40;;;21.00;56.80;;;;;;5075386;28;20045;-73
2022/08/31 00:20:27;;;;;;;3.85;2.10;;;21.00;56.70;;;;;;5075477;28;20046;-73
2022/08/31 00:22:53;;;;;;;3.65;2.00;;;21.00;56.70;;;;;;5075352;28;20021;-75
2022/08/31 00:25:19;;;;;;;3.58;2.15;;;21.00;56.70;;;;;;5075337;28;20028;-72
2022/08/31 00:27:45;;;;;;;2.90;1.98;;;21.00;56.90;;;;;;5075260;28;20047;-73
2022/08/31 00:30:11;;;;;;;3.35;2.28;;;20.90;57.00;;;;;;5075165;28;20128;-73
2022/08/31 00:32:37;;;;;;;2.95;2.17;;;20.90;57.30;;;;;;5075320;28;20036;-73
2022/08/31 00:35:05;;;;;;;3.75;2.55;;;20.90;57.30;;;;;;5075136;28;20045;-73
2022/08/31 00:37:31;;;;;;;3.05;2.03;;;20.80;57.30;;;;;;5075037;28;20049;-73
2022/08/31 00:39:56;;;;;;;4.82;2.20;;;20.90;57.40;;;;;;5075031;28;20025;-73
2022/08/31 00:42:22;;;;;;;2.97;2.17;;;20.90;57.40;;;;;;5074995;28;20017;-73
2022/08/31 00:44:48;;;;;;;6.20;2.17;;;20.80;57.40;;;;;;5074939;28;20531;-73
2022/08/31 00:47:34;;;;;;;2.92;2.00;;;20.80;57.50;;;;;;5073907;28;20032;-73
2022/08/31 00:50:01;;;;;;;4.40;2.22;;;20.80;57.50;;;;;;5074875;28;20492;-73
2022/08/31 00:52:34;;;;;;;4.47;2.10;;;20.80;57.60;;;;;;5074799;28;20036;-73
2022/08/31 00:55:08;;;;;;;4.95;2.30;;;20.70;57.70;;;;;;5074962;28;20025;-73
2022/08/31 00:57:38;;;;;;;3.92;2.10;;;20.70;58.80;;;;;;5074809;28;20028;-72
2022/08/31 01:00:07;;;;;;;5.60;2.30;;;20.70;57.90;;;;;;5074546;28;20096;-73
2022/08/31 01:02:32;;;;;;;7.03;2.47;;;20.60;57.90;;;;;;5073999;28;20017;-73
2022/08/31 01:04:58;;;;;;;2.90;1.80;;;20.60;58.00;;;;;;5074574;28;20094;-73
2022/08/31 01:07:24;;;;;;;2.47;1.95;;;20.60;58.30;;;;;;5074528;28;20048;-73
2022/08/31 01:09:50;;;;;;;4.03;2.40;;;20.60;58.40;;;;;;5074483;28;20108;-73
2022/08/31 01:12:16;;;;;;;5.03;2.30;;;20.50;58.50;;;;;;5074424;28;20029;-73
2022/08/31 01:14:42;;;;;;;3.65;2.20;;;20.50;58.50;;;;;;5074506;28;20372;-73
2022/08/31 01:17:08;;;;;;;5.03;2.30;;;20.40;58.60;;;;;;5074332;28;20021;-73
2022/08/31 01:19:56;;;;;;;3.22;2.10;;;20.50;58.60;;;;;;5074204;28;20020;-73
2022/08/31 01:22:27;;;;;;;4.50;2.17;;;20.50;58.60;;;;;;5074266;28;20029;-73
2022/08/31 01:24:54;;;;;;;4.32;2.28;;;20.40;58.60;;;;;;5074231;28;20017;-74
2022/08/31 01:27:26;;;;;;;5.78;2.42;;;20.40;58.70;;;;;;5074112;28;20024;-73
2022/08/31 01:29:52;;;;;;;3.88;2.13;;;20.40;58.80;;;;;;5073930;28;20036;-74
2022/08/31 01:32:18;;;;;;;3.90;2.13;;;20.40;58.70;;;;;;5074007;28;20051;-73
2022/08/31 01:34:43;;;;;;;4.07;2.30;;;20.40;58.90;;;;;;5073984;28;20029;-73
2022/08/31 01:37:10;;;;;;;3.28;2.10;;;20.40;59.00;;;;;;5073948;28;20116;-73
2022/08/31 01:39:36;;;;;;;2.95;2.20;;;20.40;58.80;;;;;;5073828;28;20051;-74
2022/08/31 01:42:01;;;;;;;3.38;2.20;;;20.30;58.80;;;;;;5073844;28;20029;-73
2022/08/31 01:44:27;;;;;;;3.20;2.22;;;20.20;59.00;;;;;;5073826;28;20028;-74
2022/08/31 01:46:54;;;;;;;3.55;2.28;;;20.20;59.20;;;;;;5073790;28;20083;-73
2022/08/31 01:49:22;;;;;;;3.22;2.53;;;20.20;59.30;;;;;;5073776;28;20048;-73
2022/08/31 01:51:50;;;;;;;3.42;2.28;;;20.20;59.30;;;;;;5073732;28;20028;-73
2022/08/31 01:54:17;;;;;;;3.05;2.15;;;20.10;59.20;;;;;;5073762;28;20020;-73
2022/08/31 01:56:46;;;;;;;3.38;2.20;;;20.10;59.40;;;;;;5073635;28;20029;-73
2022/08/31 01:59:13;;;;;;;4.57;2.40;;;20.10;59.50;;;;;;5073399;28;20055;-74
2022/08/31 02:01:43;;;;;;;4.40;2.58;;;20.10;59.60;;;;;;5073667;28;20017;-73
2022/08/31 02:04:13;;;;;;;3.53;2.20;;;20.10;59.60;;;;;;5073569;28;20032;-73
2022/08/31 02:06:44;;;;;;;3.95;2.15;;;20.10;60.50;;;;;;5073447;28;20040;-73
2022/08/31 02:09:10;;;;;;;2.92;2.00;;;20.10;59.40;;;;;;5073443;28;20080;-73
2022/08/31 02:11:37;;;;;;;3.63;2.35;;;20.10;59.40;;;;;;5073435;28;20029;-73
2022/08/31 02:14:03;;;;;;;6.30;2.58;;;20.00;59.50;;;;;;5072542;28;20025;-74
2022/08/31 02:16:28;;;;;;;3.55;2.17;;;20.00;59.50;;;;;;5073288;28;20071;-74
2022/08/31 02:18:54;;;;;;;2.88;2.40;;;19.90;59.60;;;;;;5073230;28;20025;-74
2022/08/31 02:21:20;;;;;;;2.95;2.10;;;19.90;59.70;;;;;;5073275;28;20376;-74
2022/08/31 02:23:46;;;;;;;3.22;2.40;;;19.90;59.60;;;;;;5073254;28;20017;-74
2022/08/31 02:26:11;;;;;;;3.28;2.35;;;19.90;59.60;;;;;;5073218;28;20036;-73
2022/08/31 02:28:37;;;;;;;3.45;2.22;;;19.90;59.60;;;;;;5073118;28;20028;-74
2022/08/31 02:31:03;;;;;;;4.50;2.28;;;19.90;59.70;;;;;;5073156;28;20029;-74
2022/08/31 02:33:29;;;;;;;2.55;2.25;;;19.80;59.60;;;;;;5073131;28;20028;-74
2022/08/31 02:35:54;;;;;;;3.08;2.30;;;19.80;59.60;;;;;;5073128;28;20033;-74
2022/08/31 02:38:21;;;;;;;4.00;2.38;;;19.80;59.70;;;;;;5073170;28;20029;-73
2022/08/31 02:40:50;;;;;;;3.70;2.20;;;19.80;59.70;;;;;;5073041;28;20025;-74
2022/08/31 02:43:17;;;;;;;3.33;2.05;;;19.70;59.60;;;;;;5073063;28;20044;-73
2022/08/31 02:45:42;;;;;;;3.20;2.20;;;19.60;59.70;;;;;;5073019;28;20025;-74
2022/08/31 02:48:09;;;;;;;3.70;2.15;;;19.60;59.80;;;;;;5073022;28;20029;-74
2022/08/31 02:50:46;;;;;;;2.60;2.25;;;19.60;59.90;;;;;;5072989;28;20020;-73
2022/08/31 02:53:15;;;;;;;2.63;2.00;;;19.60;59.80;;;;;;5072920;28;20056;-73
2022/08/31 02:55:42;;;;;;;2.30;1.88;;;19.50;59.70;;;;;;5072920;28;20025;-73
2022/08/31 02:58:09;;;;;;;4.30;2.20;;;19.50;59.80;;;;;;5072694;28;20053;-73
2022/08/31 03:00:35;;;;;;;3.10;2.10;;;19.50;59.80;;;;;;5072987;28;20029;-73
2022/08/31 03:03:02;;;;;;;3.22;2.00;;;19.50;59.80;;;;;;5072825;28;20021;-74
2022/08/31 03:05:27;;;;;;;3.35;2.10;;;19.40;59.80;;;;;;5072845;28;20048;-74
2022/08/31 03:07:54;;;;;;;2.30;1.90;;;19.40;59.90;;;;;;5072792;28;20025;-74
2022/08/31 03:10:22;;;;;;;3.90;1.80;;;19.40;59.80;;;;;;5072839;28;20361;-74
2022/08/31 03:12:49;;;;;;;2.65;2.00;;;19.40;59.80;;;;;;5072778;28;20051;-74
2022/08/31 03:15:17;;;;;;;4.30;1.83;;;19.30;59.90;;;;;;5072737;28;20026;-74
2022/08/31 03:17:43;;;;;;;2.20;1.80;;;19.30;59.60;;;;;;5072619;28;20044;-73
2022/08/31 03:20:10;;;;;;;3.60;1.80;;;19.20;59.80;;;;;;5072706;28;20040;-74
2022/08/31 03:22:36;;;;;;;3.33;1.90;;;19.20;59.90;;;;;;5072727;28;20043;-74
2022/08/31 03:25:03;;;;;;;3.78;1.90;;;19.20;59.90;;;;;;5074501;28;20017;-74
2022/08/31 03:27:48;;;;;;;3.97;1.77;;;19.10;59.90;;;;;;5076469;28;20041;-74
2022/08/31 03:30:18;;;;;;;2.40;1.90;;;19.10;59.70;;;;;;5076325;28;20388;-74
2022/08/31 03:32:44;;;;;;;1.88;1.67;;;19.00;59.80;;;;;;5076286;28;20029;-74
2022/08/31 03:35:10;;;;;;;4.15;1.80;;;19.00;59.70;;;;;;5076287;28;20033;-74
2022/08/31 03:37:36;;;;;;;2.67;1.92;;;19.00;59.60;;;;;;5076225;28;20050;-74
2022/08/31 03:40:03;;;;;;;2.13;1.52;;;19.00;59.40;;;;;;5075198;28;20131;-74
2022/08/31 03:42:29;;;;;;;3.60;1.45;;;19.00;58.90;;;;;;5076189;28;20025;-74
2022/08/31 03:44:54;;;;;;;3.78;1.90;;;19.00;58.80;;;;;;5076092;28;20036;-74
2022/08/31 03:47:20;;;;;;;1.90;1.60;;;19.00;58.80;;;;;;5076071;28;20036;-74
2022/08/31 03:49:46;;;;;;;1.95;1.50;;;19.00;58.80;;;;;;5076005;28;20025;-74
2022/08/31 03:52:12;;;;;;;2.97;1.52;;;19.00;58.70;;;;;;5076098;28;20047;-74
2022/08/31 03:54:37;;;;;;;2.42;1.77;;;18.90;58.60;;;;;;5075921;28;20116;-72
2022/08/31 03:57:04;;;;;;;2.45;1.50;;;18.90;58.40;;;;;;5075892;28;20021;-73
2022/08/31 03:59:29;;;;;;;1.80;1.48;;;18.90;58.30;;;;;;5075593;28;20108;-73
2022/08/31 04:01:55;;;;;;;1.98;1.65;;;18.90;59.20;;;;;;5075767;28;20029;-73
2022/08/31 04:04:21;;;;;;;2.50;1.70;;;18.80;58.10;;;;;;5075829;28;20093;-73
2022/08/31 04:06:46;;;;;;;2.67;1.55;;;18.80;58.20;;;;;;5075687;28;20033;-74
2022/08/31 04:09:14;;;;;;;2.05;1.88;;;18.80;58.30;;;;;;5075648;28;20025;-73
2022/08/31 04:11:41;;;;;;;1.45;1.30;;;18.80;58.30;;;;;;5075625;28;20033;-73
2022/08/31 04:14:07;;;;;;;2.58;1.88;;;18.80;58.00;;;;;;5075593;28;20485;-74
2022/08/31 04:16:33;;;;;;;2.53;1.60;;;18.80;58.20;;;;;;5075500;28;20104;-73
2022/08/31 04:18:59;;;;;;;2.88;1.70;;;18.70;58.10;;;;;;5075350;28;20063;-73
2022/08/31 04:21:29;;;;;;;1.88;1.38;;;18.80;58.20;;;;;;5075385;28;20496;-74
2022/08/31 04:23:55;;;;;;;2.78;1.77;;;18.70;58.30;;;;;;5075427;28;20425;-74
2022/08/31 04:26:42;;;;;;;2.42;1.58;;;18.70;58.30;;;;;;5075327;28;20028;-74
2022/08/31 04:29:08;;;;;;;1.95;1.40;;;18.70;58.30;;;;;;5075399;28;20040;-74
2022/08/31 04:31:35;;;;;;;3.97;1.70;;;18.60;59.40;;;;;;5075238;28;20080;-73
2022/08/31 04:34:01;;;;;;;2.55;1.70;;;18.70;58.40;;;;;;5075177;28;20032;-74
2022/08/31 04:36:27;;;;;;;2.25;1.65;;;18.60;58.40;;;;;;5074199;28;20021;-74
2022/08/31 04:38:56;;;;;;;2.15;1.58;;;18.60;58.50;;;;;;5075002;28;20028;-74
2022/08/31 04:41:24;;;;;;;2.50;1.60;;;18.60;58.50;;;;;;5075065;28;20021;-74
2022/08/31 04:43:52;;;;;;;2.30;1.50;;;18.50;58.40;;;;;;5074893;28;20032;-74
2022/08/31 04:46:19;;;;;;;4.82;1.50;;;18.50;58.50;;;;;;5075003;28;20021;-74
2022/08/31 04:48:46;;;;;;;2.05;1.58;;;18.50;58.50;;;;;;5074878;28;20059;-74
2022/08/31 04:51:17;;;;;;;2.42;1.33;;;18.40;58.50;;;;;;5074840;28;20033;-74
2022/08/31 04:53:43;;;;;;;2.20;1.30;;;18.40;58.30;;;;;;5074825;28;20023;-74
2022/08/31 04:56:21;;;;;;;1.90;1.25;;;18.40;58.50;;;;;;5074787;28;20029;-74
2022/08/31 04:58:58;;;;;;;2.15;1.42;;;18.30;58.40;;;;;;5074509;28;20045;-74
2022/08/31 05:01:26;;;;;;;2.70;1.42;;;18.30;58.30;;;;;;5074749;28;20080;-74
2022/08/31 05:03:54;;;;;;;2.13;1.67;;;18.30;58.30;;;;;;5074621;28;20029;-74
2022/08/31 05:06:23;;;;;;;2.08;1.40;;;18.30;58.30;;;;;;5074570;28;20025;-74
2022/08/31 05:08:57;;;;;;;2.88;1.75;;;18.30;58.20;;;;;;5074532;28;20055;-74
2022/08/31 05:11:25;;;;;;;4.68;1.50;;;18.30;58.30;;;;;;5074483;28;20469;-73
2022/08/31 05:13:51;;;;;;;3.55;1.52;;;18.30;58.00;;;;;;5074432;28;20135;-74
2022/08/31 05:16:18;;;;;;;3.40;1.63;;;18.20;58.00;;;;;;5073315;28;20039;-73
2022/08/31 05:18:46;;;;;;;2.35;1.70;;;18.20;58.00;;;;;;5073444;28;20096;-73
2022/08/31 05:21:27;;;;;;;2.30;1.42;;;18.20;57.80;;;;;;5074268;28;20037;-73
2022/08/31 05:23:54;;;;;;;3.15;1.25;;;18.10;57.80;;;;;;5074165;28;20013;-72
2022/08/31 05:26:23;;;;;;;3.17;1.33;;;18.10;58.00;;;;;;5074204;28;20021;-72
2022/08/31 05:28:48;;;;;;;5.38;1.40;;;18.10;57.90;;;;;;5074127;28;20051;-72
2022/08/31 05:31:15;;;;;;;2.13;1.40;;;18.10;57.90;;;;;;5074094;28;20029;-73
2022/08/31 05:33:41;;;;;;;1.88;1.10;;;18.10;58.50;;;;;;5073002;28;20029;-73
2022/08/31 05:36:07;;;;;;;2.83;1.60;;;18.10;57.50;;;;;;5074047;28;20089;-73
2022/08/31 05:38:34;;;;;;;3.97;1.50;;;18.10;57.60;;;;;;5073952;28;20040;-73
2022/08/31 05:41:00;;;;;;;2.58;1.40;;;18.10;57.50;;;;;;5073937;28;20025;-73
2022/08/31 05:43:27;;;;;;;2.72;1.20;;;18.10;57.60;;;;;;5073879;28;20491;-73
2022/08/31 05:45:53;;;;;;;3.83;1.30;;;18.10;57.60;;;;;;5073832;28;20076;-73
2022/08/31 05:48:19;;;;;;;2.30;1.33;;;18.10;57.60;;;;;;5073677;28;20028;-73
2022/08/31 05:50:45;;;;;;;1.85;1.30;;;18.10;57.50;;;;;;5073733;28;20025;-73
2022/08/31 05:53:11;;;;;;;1.80;1.40;;;18.10;57.60;;;;;;5072817;28;20032;-73
2022/08/31 05:55:37;;;;;;;1.60;1.30;;;18.10;57.40;;;;;;5073667;28;20029;-73
2022/08/31 05:58:02;;;;;;;3.00;1.10;;;18.20;57.30;;;;;;5073337;28;20032;-73
2022/08/31 06:00:29;;;;;;;2.35;1.25;;;18.10;57.10;;;;;;5073642;28;20035;-72
2022/08/31 06:02:55;;;;;;;2.60;1.45;;;18.10;57.20;;;;;;5073528;28;20013;-73
2022/08/31 06:05:21;;;;;;;4.05;1.23;;;18.20;57.20;;;;;;5073498;28;20589;-73
2022/08/31 06:07:46;;;;;;;3.42;1.30;;;18.20;57.20;;;;;;5073479;28;20055;-73
2022/08/31 06:10:13;;;;;;;2.67;1.10;;;18.20;57.20;;;;;;5073334;28;20029;-73
2022/08/31 06:12:41;;;;;;;2.08;1.23;;;18.20;57.00;;;;;;5073422;28;20036;-73
2022/08/31 06:15:08;;;;;;;2.50;1.20;;;18.20;56.90;;;;;;5073379;28;20046;-73
2022/08/31 06:17:34;;;;;;;3.33;1.20;;;18.30;56.80;;;;;;5073307;28;20025;-73
2022/08/31 06:20:00;;;;;;;1.90;1.40;;;18.30;56.50;;;;;;5073111;28;20025;-73
2022/08/31 06:22:26;;;;;;;2.17;1.10;;;18.30;56.30;;;;;;5073149;28;20025;-72
2022/08/31 06:24:51;;;;;;;1.73;1.15;;;18.30;56.30;;;;;;5073230;28;20059;-73
2022/08/31 06:27:17;;;;;;;1.90;1.08;;;18.30;56.30;;;;;;5073211;28;20022;-73
2022/08/31 06:29:44;;;;;;;6.35;1.10;;;18.30;56.50;;;;;;5073105;28;20103;-73
2022/08/31 06:32:14;;;;;;;1.98;1.10;;;18.20;56.30;;;;;;5073122;28;20092;-73
2022/08/31 06:34:41;;;;;;;2.42;1.02;;;18.20;56.70;;;;;;5073138;28;20054;-73
2022/08/31 06:37:08;;;;;;;1.50;0.90;;;18.20;56.40;;;;;;5073236;28;20100;-72
2022/08/31 06:39:34;;;;;;;2.63;1.00;;;18.20;56.30;;;;;;5073031;28;20021;-73
2022/08/31 06:42:00;;;;;;;1.75;1.00;;;18.20;55.90;;;;;;5073094;28;20025;-74
2022/08/31 06:44:26;;;;;;;2.17;1.00;;;18.20;55.90;;;;;;5073032;28;20043;-74
2022/08/31 06:46:52;;;;;;;1.60;0.98;;;18.20;55.80;;;;;;5073018;28;20380;-73
2022/08/31 06:49:19;;;;;;;6.47;3.10;;;18.30;55.90;;;;;;5072087;28;20036;-74
2022/08/31 06:51:44;;;;;;;5.63;2.20;;;18.30;55.80;;;;;;5072988;28;20021;-73
2022/08/31 06:54:13;;;;;;;1.80;1.25;;;18.30;55.90;;;;;;5073102;28;20032;-74
2022/08/31 06:56:39;;;;;;;1.58;1.00;;;18.30;55.80;;;;;;5072914;28;20025;-73
2022/08/31 06:59:06;;;;;;;2.72;1.00;;;18.40;55.80;;;;;;5073119;28;20447;-73
2022/08/31 07:01:33;;;;;;;2.63;1.10;;;18.40;55.60;;;;;;5076943;28;20035;-73
2022/08/31 07:04:00;;;;;;;1.13;0.85;;;18.50;55.80;;;;;;5076914;28;20029;-73
2022/08/31 07:06:33;;;;;;;2.97;1.02;;;18.50;55.60;;;;;;5076996;28;20025;-73
2022/08/31 07:09:02;;;;;;;2.20;1.00;;;18.50;55.50;;;;;;5076826;28;20108;-73
2022/08/31 07:11:33;;;;;;;2.08;1.10;;;18.50;55.50;;;;;;5076811;28;20025;-73
2022/08/31 07:14:00;;;;;;;7.40;1.20;;;18.60;55.40;;;;;;5076761;28;20031;-73
2022/08/31 07:16:27;;;;;;;3.47;1.00;;;18.60;55.40;;;;;;5076640;28;20028;-73
2022/08/31 07:18:56;;;;;;;3.22;1.17;;;18.60;55.40;;;;;;5076547;28;20029;-74
2022/08/31 07:21:34;;;;;;;2.15;1.27;;;18.60;55.30;;;;;;5076584;28;20093;-73
2022/08/31 07:24:04;;;;;;;4.72;1.00;;;18.60;55.20;;;;;;5076514;28;20047;-73
2022/08/31 07:26:41;;;;;;;1.77;1.23;;;18.60;55.40;;;;;;5076534;28;20017;-74
2022/08/31 07:29:08;;;;;;;1.33;1.08;;;18.60;55.60;;;;;;5076405;28;20029;-73
2022/08/31 07:31:42;;;;;;;2.05;1.00;;;18.70;55.90;;;;;;5076363;28;20021;-74
2022/08/31 07:34:10;;;;;;;2.38;1.08;;;18.70;55.70;;;;;;5076420;28;20377;-74
2022/08/31 07:42:08;;;;;;;1.55;1.33;;;18.70;55.30;;;;;;5076280;28;20025;-74
2022/08/31 07:42:10;;;;;;;1.55;0.93;;;18.80;55.70;;;;;;5076403;28;20040;-73
2022/08/31 07:44:38;;;;;;;2.55;1.20;;;18.80;55.60;;;;;;5076268;28;20041;-73
2022/08/31 07:47:04;;;;;;;1.42;1.02;;;18.90;55.90;;;;;;5076082;28;20017;-72
2022/08/31 07:49:30;;;;;;;1.23;1.13;;;18.90;55.60;;;;;;5076053;28;20024;-72
2022/08/31 07:51:57;;;;;;;2.20;1.05;;;19.00;55.50;;;;;;5076109;28;20055;-73
2022/08/31 07:54:26;;;;;;;2.95;1.50;;;19.10;55.70;;;;;;5075944;28;20085;-73
2022/08/31 07:56:59;;;;;;;2.05;1.20;;;19.20;55.80;;;;;;5075908;28;20035;-73
2022/08/31 07:59:26;;;;;;;4.93;1.30;;;19.30;55.90;;;;;;5075619;28;20049;-72
2022/08/31 08:01:54;;;;;;;2.35;1.25;;;19.30;55.90;;;;;;5075784;28;20029;-73
2022/08/31 08:04:24;;;;;;;2.83;1.40;;;19.40;55.90;;;;;;5075802;28;20022;-73
2022/08/31 08:06:55;;;;;;;3.35;1.40;;;19.50;55.80;;;;;;5075753;28;20021;-73
2022/08/31 08:09:26;;;;;;;2.10;1.23;;;19.60;55.60;;;;;;5075848;28;20017;-73
2022/08/31 08:11:56;;;;;;;2.97;1.40;;;19.60;56.30;;;;;;5074269;28;20055;-73
2022/08/31 08:14:23;;;;;;;5.63;1.42;;;19.70;55.00;;;;;;5075570;28;20029;-72
2022/08/31 08:16:49;;;;;;;2.88;1.42;;;19.70;55.20;;;;;;5075556;28;20044;-73
2022/08/31 08:19:15;;;;;;;2.42;1.30;;;19.80;54.90;;;;;;5075392;28;20025;-73
2022/08/31 08:21:42;;;;;;;2.20;1.52;;;19.80;54.80;;;;;;5075468;28;20017;-73
2022/08/31 08:24:09;;;;;;;2.53;1.30;;;19.90;54.80;;;;;;5075423;28;20017;-73
2022/08/31 08:26:35;;;;;;;2.58;1.30;;;20.00;54.90;;;;;;5075360;28;20025;-72
2022/08/31 08:29:03;;;;;;;1.90;1.27;;;20.00;54.50;;;;;;5075238;28;20029;-72
2022/08/31 08:31:28;;;;;;;3.22;1.80;;;20.00;55.50;;;;;;5075234;28;20021;-72
2022/08/31 08:33:55;;;;;;;1.90;1.33;;;20.10;54.60;;;;;;5075229;28;20029;-73
2022/08/31 08:36:21;;;;;;;3.40;1.50;;;20.20;55.60;;;;;;5057660;28;20029;-73
2022/08/31 08:38:50;;;;;;;2.70;1.58;;;20.30;54.90;;;;;;5074116;28;20399;-73
2022/08/31 08:41:21;;;;;;;2.90;1.60;;;20.40;54.60;;;;;;5075123;28;20028;-73
2022/08/31 08:43:55;;;;;;;3.50;1.65;;;20.40;54.90;;;;;;5075138;28;20028;-73
2022/08/31 08:46:31;;;;;;;2.35;1.60;;;20.50;54.60;;;;;;5075214;28;20107;-73
2022/08/31 08:48:59;;;;;;;3.33;1.52;;;20.60;55.50;;;;;;5073988;28;20025;-73
2022/08/31 08:51:32;;;;;;;2.50;1.40;;;20.70;54.80;;;;;;5074924;28;20021;-73
2022/08/31 08:54:03;;;;;;;3.70;1.55;;;20.80;54.70;;;;;;5073951;28;20048;-73
2022/08/31 08:56:29;;;;;;;3.10;1.70;;;20.90;54.40;;;;;;5074890;28;20032;-73
2022/08/31 08:58:55;;;;;;;4.35;1.75;;;20.90;54.40;;;;;;5074516;28;20503;-73
2022/08/31 09:01:26;;;;;;;3.80;1.60;;;21.00;54.00;;;;;;5074746;28;20035;-73
2022/08/31 09:04:19;;;;;;;2.47;1.40;;;21.10;54.20;;;;;;5074736;28;20025;-73
2022/08/31 09:07:43;;;;;;;4.70;2.00;;;21.20;53.80;;;;;;5074594;28;20017;-73
2022/08/31 09:10:45;;;;;;;6.78;2.22;;;21.30;53.80;;;;;;5073947;28;20036;-71
2022/08/31 09:13:41;;;;;;;2.55;1.73;;;21.40;53.60;;;;;;5074537;28;20018;-71
2022/08/31 09:16:56;;;;;;;2.45;1.67;;;21.40;53.90;;;;;;5073469;28;20025;-71
2022/08/31 09:19:22;;;;;;;5.15;2.05;;;21.50;54.00;;;;;;5032794;28;20045;-70
2022/08/31 09:21:51;;;;;;;2.60;1.70;;;21.50;53.50;;;;;;5032476;28;20033;-70
2022/08/31 09:24:20;;;;;;;2.50;1.67;;;21.50;54.30;;;;;;5068772;28;20051;-71
2022/08/31 09:27:00;;;;;;;2.70;1.80;;;21.60;54.00;;;;;;5074271;28;20018;-71
2022/08/31 09:29:30;;;;;;;4.05;1.80;;;21.70;54.10;;;;;;5074127;28;20025;-71
2022/08/31 09:32:08;;;;;;;2.95;1.98;;;21.80;53.90;;;;;;5074221;28;20036;-70
2022/08/31 09:34:37;;;;;;;4.90;2.22;;;21.90;53.20;;;;;;5074097;28;20099;-70
2022/08/31 09:37:21;;;;;;;4.90;2.10;;;22.00;53.10;;;;;;5074036;28;20041;-70
2022/08/31 09:39:49;;;;;;;5.93;1.92;;;22.20;54.10;;;;;;5073948;28;20032;-70
2022/08/31 09:42:27;;;;;;;3.88;1.98;;;22.30;53.50;;;;;;5073921;28;20080;-71
2022/08/31 09:44:58;;;;;;;3.88;1.80;;;22.30;53.10;;;;;;5073927;28;20013;-71
2022/08/31 09:47:39;;;;;;;2.40;1.90;;;22.40;53.30;;;;;;5073851;28;20017;-71
2022/08/31 09:50:10;;;;;;;3.97;1.92;;;22.60;53.00;;;;;;5073840;28;20029;-71
2022/08/31 09:56:02;;;;;;;3.78;2.30;;;22.70;52.90;;;;;;5073195;28;20040;-71
2022/08/31 10:01:42;;;;;;;5.50;2.28;;;22.70;52.80;;;;;;5073664;28;20040;-71
2022/08/31 10:04:27;;;;;;;3.45;2.42;;;22.70;52.30;;;;;;5072715;28;20049;-71
2022/08/31 10:07:06;;;;;;;4.97;2.70;;;22.70;52.70;;;;;;5073587;28;20076;-71
2022/08/31 10:10:07;;;;;;;5.65;2.72;;;22.70;52.70;;;;;;5072561;28;20055;-71
2022/08/31 10:12:43;;;;;;;4.50;2.70;;;22.80;52.70;;;;;;5073451;28;20029;-70
2022/08/31 10:15:13;;;;;;;5.63;2.65;;;22.80;53.20;;;;;;5073448;28;20047;-71
2022/08/31 10:17:45;;;;;;;5.70;3.17;;;22.80;53.00;;;;;;5073396;28;20029;-70
2022/08/31 10:20:19;;;;;;;6.80;3.03;;;22.80;52.50;;;;;;5073261;28;20039;-71
2022/08/31 10:22:56;;;;;;;3.63;2.22;;;22.90;53.20;;;;;;5073349;28;20024;-70
2022/08/31 10:25:32;;;;;;;5.25;2.90;;;22.90;53.00;;;;;;5073331;28;20072;-71
2022/08/31 10:28:07;;;;;;;4.45;2.60;;;23.00;53.00;;;;;;5073069;28;20025;-71
2022/08/31 10:30:44;;;;;;;3.88;2.42;;;23.20;52.70;;;;;;5072285;28;20047;-71
2022/08/31 10:33:16;;;;;;;5.22;2.20;;;23.30;52.40;;;;;;5073279;28;20085;-71
2022/08/31 10:35:59;;;;;;;10.75;2.75;;;23.30;51.90;;;;;;5072630;28;20029;-71
2022/08/31 10:38:38;;;;;;;4.07;2.63;;;23.30;51.90;;;;;;5073164;28;20495;-71
2022/08/31 10:41:34;;;;;;;4.35;2.13;;;23.40;52.00;;;;;;5072255;28;20025;-72
2022/08/31 10:44:16;;;;;;;3.25;2.13;;;23.50;52.40;;;;;;5072528;28;20052;-72
2022/08/31 10:46:42;;;;;;;;;;;23.60;52.50;;;;;;5073531;28;20369;-72
2022/08/31 10:49:10;;;;;;;3.72;1.98;;;23.70;52.00;;;;;;5073085;28;19927;-72
2022/08/31 10:52:00;;;;;;;8.82;2.53;;;23.80;51.40;;;;;;5073049;28;20021;-72
2022/08/31 10:54:41;;;;;;;3.85;2.28;;;23.90;51.20;;;;;;5073000;28;20021;-71
2022/08/31 10:57:53;;;;;;;5.00;2.33;;;23.90;51.20;;;;;;5071990;28;20025;-72
2022/08/31 11:00:44;;;;;;;3.72;2.28;;;23.80;50.50;;;;;;5064820;28;20049;-72
2022/08/31 11:03:21;;;;;;;5.97;2.38;;;23.70;50.80;;;;;;5073102;28;20044;-72
2022/08/31 11:05:50;;;;;;;3.67;2.33;;;23.70;51.40;;;;;;5072889;28;20025;-72
2022/08/31 11:08:34;;;;;;;4.35;2.53;;;23.60;51.50;;;;;;5072972;28;20025;-72
2022/08/31 11:11:04;;;;;;;3.97;2.40;;;23.70;50.90;;;;;;5072849;28;20352;-72
2022/08/31 11:14:01;;;;;;;3.85;2.50;;;23.60;50.90;;;;;;5072875;28;20024;-72
2022/08/31 11:16:39;;;;;;;3.22;2.58;;;23.70;51.30;;;;;;5072935;28;20055;-71
2022/08/31 11:19:37;;;;;;;4.07;2.17;;;23.90;50.40;;;;;;5072680;28;20025;-71
2022/08/31 11:22:17;;;;;;;4.40;2.65;;;24.00;51.30;;;;;;5072725;28;20053;-71
2022/08/31 11:25:02;;;;;;;5.72;2.90;;;24.30;51.60;;;;;;5072731;28;20053;-72
2022/08/31 11:27:51;;;;;;;4.32;2.20;;;24.50;50.90;;;;;;5072736;28;20048;-72
2022/08/31 11:30:28;;;;;;;4.45;2.30;;;24.60;49.60;;;;;;5071680;28;20021;-71
2022/08/31 11:32:58;;;;;;;5.88;2.80;;;24.80;49.70;;;;;;5072660;28;20025;-73
2022/08/31 11:35:48;;;;;;;5.85;2.20;;;24.90;47.50;;;;;;5072577;28;20025;-73
2022/08/31 11:38:39;;;;;;;4.07;2.15;;;24.90;48.90;;;;;;5072518;28;20029;-73
2022/08/31 11:41:04;;;;;;;3.90;2.20;;;25.00;48.40;;;;;;5072567;28;20029;-73
2022/08/31 11:43:30;;;;;;;4.60;2.40;;;25.10;48.40;;;;;;5072521;28;20077;-73
2022/08/31 11:46:00;;;;;;;3.63;2.33;;;25.30;48.30;;;;;;5073209;28;20147;-73
2022/08/31 11:49:05;;;;;;;3.75;2.20;;;25.40;48.30;;;;;;5075338;28;20067;-73
2022/08/31 11:51:39;;;;;;;6.20;2.30;;;25.60;47.40;;;;;;5054306;28;20108;-73
2022/08/31 11:54:25;;;;;;;3.83;1.95;;;25.60;47.50;;;;;;5054454;28;20040;-73
2022/08/31 11:56:55;;;;;;;3.03;2.22;;;25.70;47.40;;;;;;5032078;28;20037;-73
2022/08/31 11:59:28;;;;;;;2.58;2.17;;;25.80;47.20;;;;;;5075673;28;20091;-73
2022/08/31 12:01:57;;;;;;;4.18;2.20;;;25.90;46.90;;;;;;5074913;28;20131;-72
2022/08/31 12:04:28;;;;;;;4.32;2.20;;;25.90;46.30;;;;;;5075790;28;20047;-73
2022/08/31 12:07:02;;;;;;;3.72;1.92;;;25.80;45.70;;;;;;5074926;28;20092;-73
2022/08/31 12:09:34;;;;;;;5.90;2.17;;;25.80;46.00;;;;;;5075795;28;20108;-73
2022/08/31 12:12:26;;;;;;;3.97;2.00;;;25.80;46.60;;;;;;5075819;28;20029;-73
2022/08/31 12:14:57;;;;;;;3.58;2.17;;;25.90;46.10;;;;;;5075705;28;20036;-73
2022/08/31 12:17:29;;;;;;;2.33;2.13;;;25.90;46.40;;;;;;5075762;28;20035;-73
2022/08/31 12:20:20;;;;;;;4.13;2.70;;;25.90;45.90;;;;;;5075654;28;20437;-73
2022/08/31 12:23:36;;;;;;;4.15;2.38;;;25.80;45.70;;;;;;5075523;28;20021;-73
2022/08/31 12:26:39;;;;;;;5.53;2.40;;;25.60;45.70;;;;;;5074426;28;20526;-73
2022/08/31 12:29:18;;;;;;;4.80;2.08;;;25.50;45.50;;;;;;5075271;28;20035;-73
2022/08/31 12:32:12;;;;;;;3.70;2.33;;;25.70;46.50;;;;;;5075330;28;20021;-73
2022/08/31 12:34:57;;;;;;;6.25;2.38;;;25.80;45.80;;;;;;5074264;28;20025;-73
2022/08/31 12:37:34;;;;;;;2.85;2.42;;;26.00;46.30;;;;;;5074229;28;20028;-73
2022/08/31 12:40:11;;;;;;;3.10;2.50;;;26.20;44.90;;;;;;5075118;28;20052;-73
2022/08/31 12:42:54;;;;;;;5.38;2.20;;;26.30;44.10;;;;;;5075083;28;20057;-73
2022/08/31 12:45:32;;;;;;;4.30;2.13;;;26.30;44.10;;;;;;5075120;28;20017;-73
2022/08/31 12:48:32;;;;;;;3.88;2.70;;;26.50;44.40;;;;;;5074110;28;20028;-73
2022/08/31 12:51:31;;;;;;;4.60;2.58;;;26.50;43.40;;;;;;5075129;28;20017;-73
2022/08/31 12:54:12;;;;;;;3.97;2.50;;;26.50;42.80;;;;;;5075073;28;20051;-72
2022/08/31 12:56:52;;;;;;;3.33;2.40;;;26.50;43.80;;;;;;5074541;28;20025;-73
2022/08/31 12:59:18;;;;;;;5.40;2.80;;;26.50;43.00;;;;;;5074570;28;20104;-73
2022/08/31 13:01:48;;;;;;;3.30;1.98;;;26.40;42.50;;;;;;5073689;28;20021;-72
2022/08/31 13:04:15;;;;;;;5.55;2.60;;;26.30;43.90;;;;;;5073742;28;20032;-73
2022/08/31 13:06:43;;;;;;;4.20;2.40;;;26.40;43.90;;;;;;5074615;28;20017;-73
2022/08/31 13:09:23;;;;;;;4.47;2.38;;;26.50;43.50;;;;;;5073640;28;20027;-73
2022/08/31 13:11:52;;;;;;;4.80;2.58;;;26.50;42.70;;;;;;5074619;28;20096;-73
2022/08/31 13:14:40;;;;;;;3.53;2.20;;;26.60;43.20;;;;;;5074519;28;20032;-73
2022/08/31 13:17:17;;;;;;;3.85;2.60;;;26.70;43.00;;;;;;5074514;28;20064;-72
2022/08/31 13:20:03;;;;;;;4.32;2.58;;;26.70;41.40;;;;;;5074471;28;20033;-72
2022/08/31 13:22:38;;;;;;;5.65;2.60;;;26.70;42.30;;;;;;5074217;28;20357;-72
2022/08/31 13:25:18;;;;;;;3.03;2.47;;;26.70;42.30;;;;;;5074304;28;20038;-72